Time;durP1;ratioP1;P1;durP2;ratioP2;P2;SDS_P1;SDS_P2;PMS_P1;PMS_P2;Temp;Humidity;BMP_temperature;BMP_pressure;BME280_temperature;BME280_humidity;BME280_pressure;Samples;Min_cycle;Max_cycle;Signal;HPM_P1;HPM_P2
2021/04/15 00:00:41;;;;;;;3.80;2.70;;;;;;;1.58;56.90;99973.22;3551552;40;20061;-67
2021/04/15 00:03:10;;;;;;;2.85;2.38;;;;;;;1.62;56.75;99984.28;3551989;40;20051;-68
2021/04/15 00:05:38;;;;;;;2.75;2.45;;;;;;;1.60;56.62;99979.19;3551082;40;20432;-67
2021/04/15 00:08:07;;;;;;;4.60;2.78;;;;;;;1.51;56.78;99979.81;3550541;40;20053;-67
2021/04/15 00:10:36;;;;;;;5.38;2.72;;;;;;;1.51;56.59;99981.56;3551870;40;20053;-68
2021/04/15 00:13:06;;;;;;;3.08;2.33;;;;;;;1.51;56.92;99973.75;3557359;40;20042;-67
2021/04/15 00:15:34;;;;;;;4.80;2.78;;;;;;;1.47;56.98;99975.75;3561645;40;20045;-68
2021/04/15 00:18:01;;;;;;;5.45;2.75;;;;;;;1.49;56.85;99982.50;3562061;40;20053;-69
2021/04/15 00:20:28;;;;;;;3.42;3.13;;;;;;;1.44;57.08;99982.00;3560223;40;20109;-68
2021/04/15 00:22:55;;;;;;;7.35;3.35;;;;;;;1.48;57.14;99973.03;3557137;40;20046;-68
2021/04/15 00:25:21;;;;;;;4.60;3.47;;;;;;;1.51;56.83;99966.78;3554351;40;20050;-69
2021/04/15 00:27:48;;;;;;;6.93;3.25;;;;;;;1.43;57.20;99969.94;3554572;40;20052;-68
2021/04/15 00:30:17;;;;;;;3.90;2.83;;;;;;;1.37;57.64;99970.31;3553841;40;20050;-68
2021/04/15 00:32:44;;;;;;;5.05;3.28;;;;;;;1.40;57.84;99972.72;3553395;40;20325;-68
2021/04/15 00:35:12;;;;;;;6.82;3.65;;;;;;;1.46;57.57;99958.44;3551271;40;20072;-67
2021/04/15 00:37:39;;;;;;;5.25;3.15;;;;;;;1.34;57.67;99965.31;3550367;40;20057;-68
2021/04/15 00:40:09;;;;;;;9.55;5.60;;;;;;;1.27;57.85;99958.88;3551121;40;20386;-67
2021/04/15 00:42:36;;;;;;;5.28;3.72;;;;;;;1.15;58.43;99952.75;3551235;40;20128;-67
2021/04/15 00:45:08;;;;;;;4.97;2.97;;;;;;;1.23;58.41;99952.22;3551460;40;20062;-67
2021/04/15 00:47:37;;;;;;;9.00;4.15;;;;;;;1.17;58.11;99937.81;3550280;40;20425;-67
2021/04/15 00:50:11;;;;;;;4.28;3.20;;;;;;;1.04;58.45;99946.59;3551449;40;20031;-68
2021/04/15 00:52:41;;;;;;;;;;;;;;;1.02;58.34;99944.09;3552109;40;20046;-66
2021/04/15 00:55:12;;;;;;;4.18;2.80;;;;;;;0.97;58.77;99948.75;3551514;40;20311;-67
2021/04/15 00:57:41;;;;;;;5.85;2.85;;;;;;;0.89;58.71;99943.25;3551292;40;20306;-68
2021/04/15 01:00:10;;;;;;;3.35;2.53;;;;;;;0.81;58.83;99938.53;3551558;40;20424;-67
2021/04/15 01:02:38;;;;;;;4.07;2.70;;;;;;;0.79;59.14;99942.19;3552167;40;20369;-67
2021/04/15 01:05:11;;;;;;;3.28;2.42;;;;;;;0.84;59.15;99935.75;3550948;40;20058;-67
2021/04/15 01:07:39;;;;;;;3.63;2.40;;;;;;;0.88;59.17;99938.97;3551771;40;20050;-67
2021/04/15 01:10:07;;;;;;;5.95;2.78;;;;;;;0.86;58.82;99938.25;3551665;40;20053;-67
2021/04/15 01:12:46;;;;;;;3.53;2.53;;;;;;;0.84;59.41;99940.94;3551748;40;20050;-68
2021/04/15 01:15:21;;;;;;;3.38;2.53;;;;;;;0.89;59.17;99938.84;3551620;40;20408;-68
2021/04/15 01:17:51;;;;;;;;;;;;;;;0.94;59.46;99946.38;3552061;40;20054;-67
2021/04/15 01:20:48;;;;;;;4.20;3.22;;;;;;;1.07;59.23;99939.41;3551843;40;19929;-68
2021/04/15 01:23:21;;;;;;;4.40;3.50;;;;;;;1.07;59.16;99939.41;3550713;40;20042;-68
2021/04/15 01:26:05;;;;;;;3.70;3.05;;;;;;;1.13;59.14;99938.97;3549419;40;20038;-68
2021/04/15 01:28:58;;;;;;;4.78;3.60;;;;;;;1.11;59.01;99945.25;3551573;40;20040;-68
2021/04/15 01:31:35;;;;;;;5.65;3.28;;;;;;;0.96;59.18;99944.50;3551495;40;20057;-68
2021/04/15 01:34:09;;;;;;;5.63;3.35;;;;;;;0.91;59.55;99938.78;3552490;40;20384;-68
2021/04/15 01:36:38;;;;;;;;;;;;;;;0.85;59.47;99940.00;3551845;40;20050;-68
2021/04/15 01:39:14;;;;;;;5.32;3.25;;;;;;;0.84;59.52;99938.34;3549745;40;19929;-68
2021/04/15 01:41:48;;;;;;;3.50;3.13;;;;;;;0.86;59.81;99938.25;3551086;40;20082;-68
2021/04/15 01:44:22;;;;;;;6.00;3.67;;;;;;;0.81;59.54;99940.31;3550069;40;20049;-69
2021/04/15 01:46:54;;;;;;;6.47;3.47;;;;;;;0.72;59.79;99939.16;3551422;40;20059;-68
2021/04/15 01:49:23;;;;;;;5.35;3.63;;;;;;;0.66;59.98;99930.00;3551493;40;20058;-68
2021/04/15 01:51:52;;;;;;;6.13;3.42;;;;;;;0.66;60.17;99939.59;3551040;40;20050;-68
2021/04/15 01:54:23;;;;;;;7.47;3.63;;;;;;;0.63;60.02;99947.59;3550966;40;20065;-68
2021/04/15 01:56:55;;;;;;;3.90;3.13;;;;;;;0.63;60.75;99939.78;3551153;40;20046;-68
2021/04/15 01:59:29;;;;;;;3.97;3.20;;;;;;;0.64;60.45;99941.44;3550378;40;20097;-69
2021/04/15 02:01:58;;;;;;;;;;;;;;;0.63;61.07;99938.00;3551155;40;20042;-68
2021/04/15 02:04:32;;;;;;;6.95;3.60;;;;;;;0.72;60.59;99934.78;3549590;40;19944;-67
2021/04/15 02:07:07;;;;;;;7.35;3.58;;;;;;;0.84;60.38;99933.13;3549297;40;20054;-69
2021/04/15 02:09:35;;;;;;;6.13;3.30;;;;;;;0.80;60.04;99936.06;3551419;40;20049;-68
2021/04/15 02:12:08;;;;;;;7.00;3.60;;;;;;;0.75;60.26;99938.97;3552692;40;20050;-68
2021/04/15 02:14:38;;;;;;;4.97;3.33;;;;;;;0.60;60.10;99937.38;3552086;40;20135;-68
2021/04/15 02:17:07;;;;;;;3.63;2.92;;;;;;;0.54;60.37;99935.19;3552202;40;20109;-68
2021/04/15 02:19:38;;;;;;;4.93;3.20;;;;;;;0.57;60.45;99934.97;3551723;40;20409;-68
2021/04/15 02:22:09;;;;;;;6.28;3.50;;;;;;;0.59;60.34;99938.31;3553016;40;20409;-68
2021/04/15 02:24:41;;;;;;;4.45;3.50;;;;;;;0.57;60.49;99941.03;3552675;40;20046;-69
2021/04/15 02:27:13;;;;;;;3.50;3.00;;;;;;;0.56;60.87;99941.13;3551954;40;20043;-68
2021/04/15 02:29:47;;;;;;;5.57;3.78;;;;;;;0.53;60.71;99939.56;3553042;40;20112;-68
2021/04/15 02:32:20;;;;;;;6.05;3.10;;;;;;;0.43;60.80;99934.13;3553001;40;20046;-67
2021/04/15 02:34:53;;;;;;;5.22;3.50;;;;;;;0.43;60.92;99938.47;3552864;40;20413;-67
2021/04/15 02:37:28;;;;;;;5.50;3.28;;;;;;;0.46;60.89;99933.91;3552883;40;20050;-67
2021/04/15 02:40:01;;;;;;;7.97;3.45;;;;;;;0.37;60.97;99934.53;3552675;40;20054;-66
2021/04/15 02:42:34;;;;;;;5.93;3.58;;;;;;;0.38;61.05;99936.19;3552137;40;20046;-67
2021/04/15 02:45:18;;;;;;;6.20;3.70;;;;;;;0.22;61.59;99938.94;3555203;40;20346;-67
2021/04/15 02:47:52;;;;;;;4.97;3.70;;;;;;;0.19;61.77;99939.13;3555324;40;20402;-67
2021/04/15 02:50:23;;;;;;;4.82;4.10;;;;;;;0.28;61.67;99942.91;3554481;40;20058;-67
2021/04/15 02:53:01;;;;;;;5.68;3.30;;;;;;;0.08;61.61;99939.00;3552767;40;20050;-67
2021/04/15 02:55:34;;;;;;;5.30;3.67;;;;;;;0.14;62.00;99942.97;3552552;40;20050;-67
2021/04/15 02:58:05;;;;;;;5.35;3.90;;;;;;;0.20;62.13;99943.44;3553003;40;20405;-67
2021/04/15 03:00:36;;;;;;;6.13;4.00;;;;;;;0.29;62.04;99942.00;3560099;40;20041;-67
2021/04/15 03:03:07;;;;;;;4.85;3.83;;;;;;;0.28;61.60;99940.31;3560188;40;20046;-67
2021/04/15 03:05:40;;;;;;;7.25;4.60;;;;;;;0.26;61.58;99946.56;3559854;40;20057;-67
2021/04/15 03:08:10;;;;;;;4.37;3.60;;;;;;;0.20;61.36;99947.78;3558160;40;20045;-67
2021/04/15 03:10:50;;;;;;;5.45;3.38;;;;;;;0.11;61.63;99951.78;3554413;40;20100;-67
2021/04/15 03:13:22;;;;;;;7.32;4.15;;;;;;;-0.01;61.73;99952.56;3552918;40;20057;-67
2021/04/15 03:15:54;;;;;;;3.63;3.28;;;;;;;-0.09;62.08;99947.84;3552086;40;20049;-67
2021/04/15 03:18:30;;;;;;;4.63;4.00;;;;;;;-0.12;62.05;99950.69;3552255;40;20054;-68
2021/04/15 03:21:02;;;;;;;5.50;4.03;;;;;;;-0.21;62.28;99956.44;3550340;40;20053;-67
2021/04/15 03:23:39;;;;;;;6.28;3.95;;;;;;;-0.14;62.35;99952.53;3550369;40;20349;-67
2021/04/15 03:26:19;;;;;;;7.90;3.67;;;;;;;-0.14;62.44;99949.91;3548952;40;20045;-67
2021/04/15 03:28:57;;;;;;;6.75;3.75;;;;;;;-0.17;62.37;99950.09;3550156;40;20050;-67
2021/04/15 03:31:30;;;;;;;5.85;3.60;;;;;;;-0.17;62.90;99954.47;3550668;40;20046;-67
2021/04/15 03:34:05;;;;;;;5.68;4.07;;;;;;;-0.10;62.80;99950.56;3549474;40;20026;-67
2021/04/15 03:36:37;;;;;;;4.57;3.65;;;;;;;-0.13;62.52;99945.56;3549627;40;20322;-67
2021/04/15 03:39:09;;;;;;;5.60;3.88;;;;;;;-0.21;62.91;99948.63;3549516;40;20042;-67
2021/04/15 03:41:40;;;;;;;8.23;4.18;;;;;;;-0.31;63.10;99950.97;3553487;40;20050;-67
2021/04/15 03:44:11;;;;;;;14.98;8.73;;;;;;;-0.29;63.26;99953.47;3555325;40;20050;-67
2021/04/15 03:46:44;;;;;;;6.43;5.13;;;;;;;-0.21;63.22;99947.81;3555452;40;20077;-66
2021/04/15 03:49:16;;;;;;;4.30;3.85;;;;;;;-0.20;62.85;99954.69;3555710;40;20036;-67
2021/04/15 03:51:48;;;;;;;6.05;4.15;;;;;;;-0.31;63.22;99952.75;3555307;40;20047;-67
2021/04/15 03:54:17;;;;;;;5.93;3.90;;;;;;;-0.31;63.39;99952.75;3554189;40;20042;-67
2021/04/15 03:56:48;;;;;;;5.22;4.03;;;;;;;-0.18;63.22;99956.25;3555640;40;20090;-68
2021/04/15 03:59:18;;;;;;;6.68;3.70;;;;;;;-0.21;63.25;99959.03;3554598;40;20111;-67
2021/04/15 04:01:49;;;;;;;5.15;3.92;;;;;;;-0.07;63.34;99958.19;3555509;40;20134;-68
2021/04/15 04:04:26;;;;;;;7.47;3.65;;;;;;;-0.09;62.59;99958.25;3552511;40;20046;-68
2021/04/15 04:06:56;;;;;;;5.95;3.97;;;;;;;-0.22;62.83;99959.97;3549950;40;20062;-67
2021/04/15 04:09:27;;;;;;;4.28;3.65;;;;;;;-0.39;63.28;99955.00;3549850;40;20418;-67
2021/04/15 04:11:54;;;;;;;6.10;4.13;;;;;;;-0.41;63.45;99962.03;3550110;40;20314;-67
2021/04/15 04:14:25;;;;;;;4.63;3.92;;;;;;;-0.36;63.86;99960.00;3548603;40;20042;-67
2021/04/15 04:17:02;;;;;;;5.38;3.80;;;;;;;-0.31;63.87;99960.53;3548518;40;20046;-67
2021/04/15 04:19:35;;;;;;;4.70;4.13;;;;;;;-0.31;63.42;99957.94;3549720;40;20089;-68
2021/04/15 04:22:11;;;;;;;6.28;4.15;;;;;;;-0.30;63.46;99959.59;3549568;40;20042;-67
2021/04/15 04:24:44;;;;;;;4.60;3.70;;;;;;;-0.31;63.38;99955.34;3548657;40;20057;-67
2021/04/15 04:27:17;;;;;;;5.35;3.60;;;;;;;-0.51;63.81;99962.59;3549894;40;20050;-67
2021/04/15 04:29:52;;;;;;;5.60;3.90;;;;;;;-0.33;63.91;99967.59;3549672;40;20412;-67
2021/04/15 04:32:23;;;;;;;8.85;4.60;;;;;;;-0.29;63.47;99959.53;3549488;40;20065;-67
2021/04/15 04:34:54;;;;;;;6.88;4.72;;;;;;;-0.31;63.37;99961.38;3548822;40;20390;-67
2021/04/15 04:37:23;;;;;;;4.60;3.65;;;;;;;-0.34;63.62;99964.16;3549320;40;20325;-67
2021/04/15 04:39:50;;;;;;;5.45;4.53;;;;;;;-0.28;63.45;99970.75;3548469;40;20112;-67
2021/04/15 04:42:27;;;;;;;4.43;4.03;;;;;;;-0.30;63.29;99975.19;3549833;40;20054;-67
2021/04/15 04:44:57;;;;;;;10.60;5.13;;;;;;;-0.34;63.55;99969.34;3549543;40;20046;-67
2021/04/15 04:47:35;;;;;;;8.55;4.70;;;;;;;-0.34;63.35;99974.53;3548283;40;20061;-67
2021/04/15 04:50:07;;;;;;;10.93;4.55;;;;;;;-0.43;63.24;99971.69;3548447;40;20408;-67
2021/04/15 04:52:35;;;;;;;6.75;4.07;;;;;;;-0.52;63.37;99975.69;3548775;40;20050;-68
2021/04/15 04:55:13;;;;;;;7.88;4.18;;;;;;;-0.54;63.65;99980.97;3549369;40;20061;-68
2021/04/15 04:57:42;;;;;;;5.75;4.07;;;;;;;-0.54;63.87;99983.56;3549360;40;20046;-67
2021/04/15 05:00:12;;;;;;;6.15;4.07;;;;;;;-0.55;63.42;99983.66;3549154;40;20050;-67
2021/04/15 05:02:40;;;;;;;6.05;4.10;;;;;;;-0.60;63.77;99991.75;3549219;40;20058;-67
2021/04/15 05:05:12;;;;;;;6.18;4.15;;;;;;;-0.59;63.89;99992.56;3549457;40;20053;-67
2021/04/15 05:07:41;;;;;;;8.98;4.50;;;;;;;-0.53;64.14;99995.63;3549539;40;20050;-67
2021/04/15 05:10:16;;;;;;;6.20;4.75;;;;;;;-0.40;63.65;99995.72;3549346;40;20057;-67
2021/04/15 05:12:44;;;;;;;6.15;4.43;;;;;;;-0.36;63.46;99986.81;3550042;40;20062;-68
2021/04/15 05:15:12;;;;;;;8.20;5.20;;;;;;;-0.37;63.67;100002.47;3549136;40;20062;-67
2021/04/15 05:17:41;;;;;;;7.93;4.88;;;;;;;-0.29;63.72;99992.44;3549503;40;20061;-67
2021/04/15 05:20:13;;;;;;;6.60;5.22;;;;;;;-0.15;63.17;99996.81;3549491;40;20384;-68
2021/04/15 05:22:46;;;;;;;9.02;5.35;;;;;;;-0.12;63.03;100002.66;3549193;40;20042;-68
2021/04/15 05:25:17;;;;;;;9.15;6.25;;;;;;;-0.03;63.47;100004.69;3549153;40;20069;-67
2021/04/15 05:27:45;;;;;;;12.27;6.32;;;;;;;0.14;63.47;100000.19;3548975;40;20046;-68
2021/04/15 05:30:25;;;;;;;10.77;6.15;;;;;;;0.20;62.91;100003.25;3549156;40;20406;-67
2021/04/15 05:32:58;;;;;;;8.35;5.85;;;;;;;0.10;62.90;100002.13;3548454;40;20128;-66
2021/04/15 05:35:31;;;;;;;12.73;6.53;;;;;;;0.11;62.71;100010.78;3549036;40;20053;-66
2021/04/15 05:37:58;;;;;;;11.85;5.80;;;;;;;0.15;62.91;100001.84;3549262;40;20036;-67
2021/04/15 05:40:25;;;;;;;9.00;6.43;;;;;;;0.20;63.19;100005.84;3548987;40;20081;-67
2021/04/15 05:43:01;;;;;;;7.30;5.00;;;;;;;0.34;63.08;100006.72;3549561;40;20050;-67
2021/04/15 05:45:29;;;;;;;7.90;5.50;;;;;;;0.41;62.95;100003.63;3547905;40;20042;-67
2021/04/15 05:48:00;;;;;;;12.00;6.00;;;;;;;0.44;62.59;99999.97;3549394;40;20220;-67
2021/04/15 05:50:32;;;;;;;9.35;7.13;;;;;;;0.49;62.84;100003.97;3549036;40;20059;-67
2021/04/15 05:53:03;;;;;;;7.18;5.68;;;;;;;0.54;62.49;100008.06;3549175;40;20050;-67
2021/04/15 05:55:34;;;;;;;6.93;5.85;;;;;;;0.60;62.51;100007.63;3549112;40;20136;-67
2021/04/15 05:58:06;;;;;;;7.43;5.82;;;;;;;0.79;62.82;100007.28;3549445;40;20072;-67
2021/04/15 06:00:43;;;;;;;10.93;7.53;;;;;;;0.96;62.43;100009.59;3549074;40;20050;-67
2021/04/15 06:03:24;;;;;;;10.63;8.30;;;;;;;1.04;61.76;100007.31;3549001;40;20050;-67
2021/04/15 06:05:57;;;;;;;11.15;7.22;;;;;;;1.05;62.25;100008.16;3549748;40;20325;-68
2021/04/15 06:08:28;;;;;;;10.38;6.50;;;;;;;1.17;61.91;100004.72;3550898;40;20417;-67
2021/04/15 06:11:07;;;;;;;11.30;6.90;;;;;;;1.19;61.58;100014.09;3550506;40;20073;-68
2021/04/15 06:13:42;;;;;;;8.98;6.55;;;;;;;1.23;62.10;100007.75;3549540;40;20054;-67
2021/04/15 06:16:17;;;;;;;7.97;6.35;;;;;;;1.30;61.97;100015.97;3550834;40;20346;-67
2021/04/15 06:18:50;;;;;;;13.07;8.30;;;;;;;1.45;61.61;100006.28;3550179;40;20125;-67
2021/04/15 06:21:21;;;;;;;10.20;7.88;;;;;;;1.54;61.44;100013.47;3549707;40;20280;-67
2021/04/15 06:23:53;;;;;;;10.35;7.72;;;;;;;1.60;61.46;100018.28;3550248;40;20031;-67
2021/04/15 06:26:29;;;;;;;12.35;8.15;;;;;;;1.80;61.58;100013.47;3550263;40;20046;-67
2021/04/15 06:28:58;;;;;;;12.48;8.73;;;;;;;1.92;61.23;100021.25;3552867;40;20052;-67
2021/04/15 06:31:30;;;;;;;10.02;8.07;;;;;;;2.06;61.15;100017.66;3553214;40;20394;-67
2021/04/15 06:34:00;;;;;;;8.90;7.38;;;;;;;2.19;60.94;100021.06;3552963;40;20049;-67
2021/04/15 06:36:35;;;;;;;9.32;8.07;;;;;;;2.37;60.65;100016.31;3552519;40;20058;-67
2021/04/15 06:39:12;;;;;;;11.48;8.35;;;;;;;2.47;60.62;100016.47;3554060;40;20095;-67
2021/04/15 06:41:58;;;;;;;11.70;9.07;;;;;;;2.61;60.29;100015.47;3555241;40;20053;-67
2021/04/15 06:44:57;;;;;;;12.25;8.73;;;;;;;2.66;59.83;100015.97;3555046;40;20058;-67
2021/04/15 06:47:50;;;;;;;12.13;9.05;;;;;;;2.71;60.02;100014.69;3555421;40;20054;-67
2021/04/15 06:50:25;;;;;;;16.00;9.50;;;;;;;2.85;59.85;100011.03;3551694;40;20077;-67
2021/04/15 06:53:10;;;;;;;12.63;9.43;;;;;;;2.90;59.66;100023.78;3552645;40;20051;-67
2021/04/15 06:55:46;;;;;;;14.43;10.30;;;;;;;2.94;59.59;100017.38;3553281;40;20061;-67
2021/04/15 06:58:30;;;;;;;17.88;11.57;;;;;;;3.07;58.96;100020.75;3557576;40;20050;-67
2021/04/15 07:01:07;;;;;;;14.27;10.23;;;;;;;3.06;59.35;100007.78;3558740;40;20070;-67
2021/04/15 07:03:51;;;;;;;15.70;10.25;;;;;;;3.12;59.33;100007.31;3558958;40;20113;-68
2021/04/15 07:06:48;;;;;;;15.98;11.07;;;;;;;3.27;59.21;100010.56;3555999;40;20451;-69
2021/04/15 07:09:47;;;;;;;18.08;11.57;;;;;;;3.31;59.27;100009.41;3554725;40;20042;-70
2021/04/15 07:12:37;;;;;;;15.43;10.75;;;;;;;3.51;59.18;100013.06;3555705;40;20054;-69
2021/04/15 07:15:32;;;;;;;14.18;10.57;;;;;;;3.70;58.99;100003.69;3554115;40;20057;-68
2021/04/15 07:18:16;;;;;;;19.52;13.45;;;;;;;3.86;58.90;100005.94;3556362;40;20046;-67
2021/04/15 07:21:23;;;;;;;11.23;10.07;;;;;;;3.99;58.62;100005.81;3556914;40;20079;-67
2021/04/15 07:24:27;;;;;;;13.45;10.55;;;;;;;4.03;58.68;100004.63;3554675;40;20046;-68
2021/04/15 07:27:15;;;;;;;14.13;9.85;;;;;;;4.16;58.67;99994.00;3554789;40;20030;-68
2021/04/15 07:29:58;;;;;;;13.35;10.20;;;;;;;4.28;58.43;99994.81;3554303;40;20053;-68
2021/04/15 07:32:49;;;;;;;13.70;10.10;;;;;;;4.36;58.68;99988.00;3554576;40;20054;-68
2021/04/15 07:35:47;;;;;;;13.18;9.90;;;;;;;4.57;58.19;99990.69;3553999;40;20090;-69
2021/04/15 07:38:39;;;;;;;11.73;9.70;;;;;;;4.56;58.28;99989.00;3550134;40;20051;-68
2021/04/15 07:41:17;;;;;;;13.25;10.20;;;;;;;4.57;58.31;99997.69;3549123;40;20047;-68
2021/04/15 07:44:02;;;;;;;12.50;8.55;;;;;;;4.39;58.82;99985.13;3548994;40;20054;-68
2021/04/15 07:46:39;;;;;;;10.38;9.02;;;;;;;4.59;59.15;99991.38;3550165;40;20129;-68
2021/04/15 07:49:39;;;;;;;9.95;8.27;;;;;;;4.80;58.59;99994.03;3549825;40;20042;-68
2021/04/15 07:52:33;;;;;;;11.55;8.77;;;;;;;4.99;58.08;99995.97;3549656;40;20046;-68
2021/04/15 07:55:22;;;;;;;10.75;8.38;;;;;;;5.06;57.79;99997.13;3550133;40;20058;-68
2021/04/15 07:58:11;;;;;;;11.35;8.57;;;;;;;5.24;57.03;99994.72;3538557;40;20132;-68
2021/04/15 08:01:10;;;;;;;11.77;8.73;;;;;;;5.36;56.83;99995.50;3550157;40;20050;-69
2021/04/15 08:04:22;;;;;;;8.73;7.35;;;;;;;5.51;55.96;99999.44;3546439;40;20050;-68
2021/04/15 08:07:01;;;;;;;9.23;7.88;;;;;;;5.64;55.89;99991.34;3510582;40;20125;-68
2021/04/15 08:09:45;;;;;;;9.73;7.43;;;;;;;5.80;55.34;99991.69;3545863;40;20043;-66
2021/04/15 08:12:38;;;;;;;8.93;7.93;;;;;;;6.00;54.70;99992.63;3550130;40;20096;-68
2021/04/15 08:15:20;;;;;;;9.30;7.90;;;;;;;6.29;54.20;99995.28;3550472;40;20050;-70
2021/04/15 08:18:12;;;;;;;10.52;7.35;;;;;;;6.69;53.80;100000.44;3554037;40;20118;-71
2021/04/15 08:21:10;;;;;;;9.07;6.72;;;;;;;7.13;52.79;99997.34;3551839;40;20441;-67
2021/04/15 08:23:48;;;;;;;7.15;6.25;;;;;;;7.33;50.15;100012.13;3549765;40;20050;-68
2021/04/15 08:26:32;;;;;;;7.90;6.43;;;;;;;7.19;50.39;100002.88;3550107;40;20054;-69
2021/04/15 08:29:12;;;;;;;11.45;7.63;;;;;;;7.08;50.14;100004.84;3549563;40;20310;-68
2021/04/15 08:31:50;;;;;;;9.82;6.93;;;;;;;6.98;50.29;100004.00;3548621;40;20046;-68
2021/04/15 08:34:36;;;;;;;9.05;6.63;;;;;;;7.10;50.08;100008.13;3549541;40;20412;-69
2021/04/15 08:37:21;;;;;;;9.65;6.88;;;;;;;7.18;49.20;100008.25;3549407;40;20054;-68
2021/04/15 08:40:03;;;;;;;10.25;6.72;;;;;;;7.17;49.48;100010.06;3549451;40;20341;-68
2021/04/15 08:42:44;;;;;;;8.98;6.43;;;;;;;7.14;49.59;100001.63;3548602;40;20058;-68
2021/04/15 08:45:31;;;;;;;10.73;6.82;;;;;;;7.20;49.45;100004.53;3549478;40;20397;-68
2021/04/15 08:48:12;;;;;;;11.13;7.55;;;;;;;7.24;49.60;100001.63;3549488;40;20053;-68
2021/04/15 08:50:49;;;;;;;7.55;6.65;;;;;;;7.34;49.48;99997.97;3549828;40;20092;-68
2021/04/15 08:53:57;;;;;;;7.53;6.32;;;;;;;7.44;49.00;100004.06;3549562;40;20061;-68
2021/04/15 08:56:29;;;;;;;7.15;6.45;;;;;;;7.40;48.06;99999.25;3518202;40;20047;-68
2021/04/15 08:59:15;;;;;;;6.80;5.55;;;;;;;7.24;47.93;100004.25;3518464;40;20044;-68
2021/04/15 09:01:52;;;;;;;7.85;6.82;;;;;;;7.26;48.19;100000.50;3533319;40;20046;-67
2021/04/15 09:04:29;;;;;;;9.65;5.90;;;;;;;7.30;47.91;100001.88;3549068;40;20049;-67
2021/04/15 09:07:03;;;;;;;8.75;6.32;;;;;;;7.36;47.68;99995.22;3549587;40;20046;-68
2021/04/15 09:09:42;;;;;;;10.77;5.32;;;;;;;7.41;47.04;100003.53;3549449;40;20062;-68
2021/04/15 09:12:27;;;;;;;9.05;6.13;;;;;;;7.32;46.42;99996.50;3549327;40;20058;-68
2021/04/15 09:15:09;;;;;;;6.53;5.65;;;;;;;7.29;46.58;99992.34;3549404;40;20053;-68
2021/04/15 09:17:39;;;;;;;6.00;5.45;;;;;;;7.20;46.25;99995.81;3548736;40;20084;-68
2021/04/15 09:20:15;;;;;;;5.88;5.28;;;;;;;7.36;45.58;99989.97;3598778;22;20048;-63
2021/04/15 09:23:07;;;;;;;6.50;5.50;;;;;;;7.61;45.66;100004.28;3579136;40;20048;-64
2021/04/15 09:25:45;;;;;;;7.30;5.25;;;;;;;7.82;44.43;99983.00;3578805;40;20414;-63
2021/04/15 09:28:23;;;;;;;6.05;5.07;;;;;;;8.00;43.69;99990.94;3579012;40;20053;-63
2021/04/15 09:30:55;;;;;;;6.45;4.85;;;;;;;8.24;43.38;99980.66;3577912;40;20056;-65
2021/04/15 09:33:42;;;;;;;5.38;4.60;;;;;;;8.56;43.28;99974.94;3578651;40;20049;-64
2021/04/15 09:36:22;;;;;;;6.22;5.32;;;;;;;8.86;41.90;99967.63;3578712;40;20055;-65
2021/04/15 09:39:22;;;;;;;7.85;5.65;;;;;;;9.01;41.50;99973.97;3578733;40;20059;-65
2021/04/15 09:42:18;;;;;;;6.05;5.45;;;;;;;9.16;40.73;99971.63;3568637;40;20045;-65
2021/04/15 09:45:18;;;;;;;4.95;4.45;;;;;;;9.23;40.39;99970.03;3570998;40;20296;-65
2021/04/15 09:48:07;;;;;;;6.38;4.38;;;;;;;9.61;39.95;99960.81;3578997;40;20040;-64
2021/04/15 09:50:44;;;;;;;6.40;4.90;;;;;;;9.99;38.77;99963.09;3579080;40;20055;-63
2021/04/15 09:53:28;;;;;;;4.78;3.55;;;;;;;10.23;37.13;99963.16;3579114;40;20033;-64
2021/04/15 09:56:00;;;;;;;;;;;;;;;10.24;36.07;99958.72;3578645;40;20045;-64
2021/04/15 09:58:31;;;;;;;5.88;4.50;;;;;;;10.26;36.45;99952.31;3577780;40;19939;-65
2021/04/15 10:01:03;;;;;;;4.40;3.80;;;;;;;10.33;35.79;99955.16;3578816;40;20354;-63
2021/04/15 10:03:46;;;;;;;4.03;3.53;;;;;;;10.21;34.96;99951.13;3578750;40;20052;-63
2021/04/15 10:06:20;;;;;;;4.30;3.90;;;;;;;10.30;35.56;99945.72;3577577;40;20061;-63
2021/04/15 10:09:03;;;;;;;4.55;3.85;;;;;;;10.18;35.26;99957.56;3578437;40;20056;-63
2021/04/15 10:11:42;;;;;;;5.18;4.30;;;;;;;10.16;34.72;99949.78;3578666;40;20048;-64
2021/04/15 10:14:27;;;;;;;3.20;2.88;;;;;;;9.81;33.02;99956.13;3578437;40;20056;-64
2021/04/15 10:17:06;;;;;;;4.18;2.72;;;;;;;9.74;32.96;99959.56;3578520;40;20423;-64
2021/04/15 10:19:55;;;;;;;2.70;2.50;;;;;;;9.69;32.65;99949.47;3578528;40;20049;-64
2021/04/15 10:22:34;;;;;;;3.90;2.97;;;;;;;9.67;33.32;99951.44;3578521;40;20095;-64
2021/04/15 10:25:08;;;;;;;5.22;3.63;;;;;;;9.86;34.20;99943.25;3579152;40;20292;-64
2021/04/15 10:28:09;;;;;;;3.88;3.22;;;;;;;10.01;33.20;99954.03;3578301;40;20106;-63
2021/04/15 10:31:00;;;;;;;3.45;3.13;;;;;;;10.04;33.93;99945.81;3578467;40;20053;-63
2021/04/15 10:33:49;;;;;;;5.22;3.42;;;;;;;10.21;33.59;99936.09;3579871;40;20392;-64
2021/04/15 10:36:53;;;;;;;3.28;2.97;;;;;;;10.40;33.54;99930.50;3580334;40;20048;-64
2021/04/15 10:39:59;;;;;;;3.72;3.38;;;;;;;10.65;33.39;99930.53;3579910;40;20044;-64
2021/04/15 10:43:03;;;;;;;3.95;3.60;;;;;;;10.60;33.20;99928.38;3551186;40;20093;-64
2021/04/15 10:45:49;;;;;;;5.53;3.97;;;;;;;10.57;34.24;99919.94;3580505;40;20177;-64
2021/04/15 10:48:25;;;;;;;4.03;3.58;;;;;;;10.31;34.60;99920.94;3581888;40;20045;-66
2021/04/15 10:50:57;;;;;;;3.47;3.17;;;;;;;9.63;34.39;99924.53;3583138;40;20418;-64
2021/04/15 10:53:44;;;;;;;5.45;3.28;;;;;;;9.23;35.17;99926.97;3585484;40;20061;-64
2021/04/15 10:56:29;;;;;;;4.65;2.88;;;;;;;9.15;33.52;99933.88;3585350;40;20048;-66
2021/04/15 10:59:09;;;;;;;3.67;2.95;;;;;;;9.01;33.93;99937.06;3586658;40;20052;-65
2021/04/15 11:01:39;;;;;;;5.13;3.50;;;;;;;8.87;34.70;99935.81;3584738;40;20056;-65
2021/04/15 11:04:22;;;;;;;3.80;3.50;;;;;;;8.66;35.64;99930.88;3585044;40;20056;-65
2021/04/15 11:06:52;;;;;;;4.20;3.53;;;;;;;8.66;36.17;99930.88;3583634;40;20091;-66
2021/04/15 11:09:32;;;;;;;4.00;3.33;;;;;;;8.67;35.32;99929.88;3583476;40;20048;-65
2021/04/15 11:12:04;;;;;;;6.03;3.70;;;;;;;8.48;35.61;99921.31;3583244;40;20071;-65
2021/04/15 11:14:35;;;;;;;4.45;3.30;;;;;;;8.64;35.76;99918.81;3581380;40;20057;-65
2021/04/15 11:17:06;;;;;;;5.97;3.72;;;;;;;9.07;35.11;99917.16;3582482;40;20045;-63
2021/04/15 11:19:33;;;;;;;5.20;4.28;;;;;;;9.33;35.39;99902.13;3579921;40;20033;-63
2021/04/15 11:22:14;;;;;;;3.78;3.40;;;;;;;9.60;34.52;99900.25;3579892;40;20084;-66
2021/04/15 11:24:43;;;;;;;3.35;3.05;;;;;;;9.53;34.07;99905.34;3579944;40;20072;-63
2021/04/15 11:27:10;;;;;;;4.00;3.60;;;;;;;9.42;33.90;99897.69;3580042;40;20060;-63
2021/04/15 11:29:43;;;;;;;6.80;3.83;;;;;;;9.34;34.46;99906.41;3579646;40;20037;-64
2021/04/15 11:32:29;;;;;;;5.07;4.13;;;;;;;9.29;34.20;99906.06;3579685;40;20396;-63
2021/04/15 11:35:04;;;;;;;7.53;4.57;;;;;;;9.18;34.61;99901.91;3579855;40;20277;-64
2021/04/15 11:37:31;;;;;;;5.45;3.65;;;;;;;9.09;34.68;99894.06;3579679;40;20364;-65
2021/04/15 11:40:23;;;;;;;5.50;4.15;;;;;;;8.98;34.58;99896.97;3579632;40;20346;-65
2021/04/15 11:42:51;;;;;;;5.35;3.85;;;;;;;9.07;34.92;99888.16;3579290;40;20041;-63
2021/04/15 11:45:31;;;;;;;4.57;3.90;;;;;;;9.37;34.98;99884.97;3579602;40;20431;-64
2021/04/15 11:48:19;;;;;;;3.60;3.10;;;;;;;9.71;33.74;99894.66;3579797;40;20392;-65
2021/04/15 11:50:46;;;;;;;5.20;3.45;;;;;;;9.95;33.49;99883.34;3579644;40;20085;-65
2021/04/15 11:53:37;;;;;;;4.75;3.97;;;;;;;9.89;33.74;99884.00;3579526;40;20448;-63
2021/04/15 11:56:14;;;;;;;4.60;3.30;;;;;;;9.76;33.03;99887.13;3578802;40;20045;-65
2021/04/15 11:58:41;;;;;;;3.30;3.00;;;;;;;9.70;31.48;99882.47;3579702;40;20053;-64
2021/04/15 12:01:09;;;;;;;3.30;3.00;;;;;;;9.59;31.03;99888.88;3579931;40;20049;-63
2021/04/15 12:03:52;;;;;;;4.28;3.50;;;;;;;9.58;31.20;99884.56;3579601;40;20049;-64
2021/04/15 12:06:20;;;;;;;3.95;3.47;;;;;;;9.69;31.62;99878.19;3578450;40;20048;-64
2021/04/15 12:08:48;;;;;;;4.70;3.58;;;;;;;9.93;31.39;99880.06;3578336;40;20400;-64
2021/04/15 12:11:21;;;;;;;4.18;3.70;;;;;;;10.08;31.85;99881.09;3578319;40;20041;-64
2021/04/15 12:13:51;;;;;;;3.75;3.35;;;;;;;10.05;30.99;99872.66;3579514;40;20049;-65
2021/04/15 12:16:22;;;;;;;3.60;3.28;;;;;;;10.14;30.85;99877.78;3579273;40;20358;-65
2021/04/15 12:18:56;;;;;;;4.03;3.35;;;;;;;10.22;30.66;99874.31;3579417;40;20045;-65
2021/04/15 12:21:27;;;;;;;5.32;3.97;;;;;;;10.33;30.27;99860.81;3579396;40;20408;-65